createdAt,value
2023-02-06T00:01:33.845Z,5.80
2023-02-06T00:04:01.908Z,5.10
2023-02-06T00:06:30.033Z,4.67
2023-02-06T00:08:58.057Z,5.53
2023-02-06T00:11:26.195Z,5.10
2023-02-06T00:13:54.748Z,4.40
2023-02-06T00:16:24.479Z,5.00
2023-02-06T00:18:54.709Z,4.83
2023-02-06T00:21:25.785Z,4.03
2023-02-06T00:23:55.734Z,4.43
2023-02-06T00:26:24.312Z,4.37
2023-02-06T00:28:52.628Z,5.13
2023-02-06T00:31:20.761Z,4.47
2023-02-06T00:33:48.875Z,4.67
2023-02-06T00:36:18.624Z,4.30
2023-02-06T00:38:46.713Z,4.80
2023-02-06T00:41:15.217Z,4.57
2023-02-06T00:43:43.580Z,4.70
2023-02-06T00:46:11.836Z,5.10
2023-02-06T00:48:39.917Z,4.60
2023-02-06T00:51:07.924Z,4.63
2023-02-06T00:53:39.956Z,4.93
2023-02-06T00:56:08.281Z,4.33
2023-02-06T00:58:36.328Z,4.00
2023-02-06T01:01:04.715Z,4.33
2023-02-06T01:03:32.780Z,4.53
2023-02-06T01:06:00.827Z,4.27
2023-02-06T01:08:28.964Z,4.83
2023-02-06T01:10:58.466Z,3.87
2023-02-06T01:13:26.538Z,4.57
2023-02-06T01:15:54.554Z,4.10
2023-02-06T01:18:23.129Z,4.30
2023-02-06T01:20:51.141Z,4.37
2023-02-06T01:23:19.236Z,4.60
2023-02-06T01:25:47.265Z,4.90
2023-02-06T01:28:18.564Z,3.97
2023-02-06T01:30:48.032Z,4.40
2023-02-06T01:33:16.093Z,3.70
2023-02-06T01:35:45.056Z,4.40
2023-02-06T01:38:13.115Z,3.87
2023-02-06T01:40:41.124Z,5.23
2023-02-06T01:43:19.536Z,4.53
2023-02-06T01:45:47.989Z,4.00
2023-02-06T01:48:20.037Z,4.10
2023-02-06T01:50:52.455Z,4.00
2023-02-06T01:53:23.503Z,4.17
2023-02-06T01:55:53.636Z,4.37
2023-02-06T01:58:29.080Z,4.67
2023-02-06T02:00:58.640Z,3.83
2023-02-06T02:03:27.738Z,4.60
2023-02-06T02:06:01.165Z,4.10
2023-02-06T02:08:33.976Z,4.43
2023-02-06T02:11:05.004Z,3.47
2023-02-06T02:13:36.555Z,3.63
2023-02-06T02:16:13.963Z,4.10
2023-02-06T02:18:54.739Z,4.07
2023-02-06T02:22:11.609Z,4.13
2023-02-06T02:25:05.447Z,3.70
2023-02-06T02:27:59.028Z,4.47
2023-02-06T02:30:52.321Z,3.73
2023-02-06T02:33:42.346Z,4.23
2023-02-06T02:36:16.335Z,3.50
2023-02-06T02:38:55.181Z,3.77
2023-02-06T02:41:29.748Z,4.50
2023-02-06T02:44:05.595Z,4.20
2023-02-06T02:46:37.913Z,4.47
2023-02-06T02:49:10.362Z,3.20
2023-02-06T02:51:41.515Z,4.57
2023-02-06T02:54:10.142Z,4.13
2023-02-06T02:56:38.516Z,3.93
2023-02-06T02:59:10.740Z,4.00
2023-02-06T03:01:43.877Z,4.10
2023-02-06T03:04:17.438Z,4.00
2023-02-06T03:06:58.671Z,4.83
2023-02-06T03:09:40.402Z,5.00
2023-02-06T03:12:13.664Z,3.63
2023-02-06T03:14:47.830Z,3.80
2023-02-06T03:17:24.060Z,4.77
2023-02-06T03:19:56.093Z,3.90
2023-02-06T03:22:26.850Z,4.30
2023-02-06T03:24:56.621Z,4.03
2023-02-06T03:27:28.026Z,4.43
2023-02-06T03:29:57.228Z,4.77
2023-02-06T03:32:28.856Z,3.90
2023-02-06T03:35:02.600Z,4.10
2023-02-06T03:37:32.711Z,4.23
2023-02-06T03:40:02.491Z,3.93
2023-02-06T03:42:32.211Z,4.07
2023-02-06T03:45:06.910Z,3.13
2023-02-06T03:47:36.805Z,3.40
2023-02-06T03:50:06.161Z,3.63
2023-02-06T03:52:40.550Z,3.50
2023-02-06T03:55:13.770Z,3.20
2023-02-06T03:57:45.534Z,3.80
2023-02-06T04:00:14.893Z,3.73
2023-02-06T04:02:46.104Z,4.17
2023-02-06T04:05:14.567Z,4.10
2023-02-06T04:07:44.083Z,3.63
2023-02-06T04:10:12.604Z,3.17
2023-02-06T04:12:40.704Z,3.50
2023-02-06T04:15:09.373Z,4.13
2023-02-06T04:17:53.490Z,3.50
2023-02-06T04:20:22.210Z,3.27
2023-02-06T04:22:51.670Z,4.03
2023-02-06T04:25:19.914Z,3.30
2023-02-06T04:27:47.971Z,3.50
2023-02-06T04:30:17.970Z,3.77
2023-02-06T04:32:46.197Z,3.57
2023-02-06T04:35:14.288Z,4.13
2023-02-06T04:37:42.384Z,3.40
2023-02-06T04:40:13.349Z,3.13
2023-02-06T04:42:41.434Z,3.40
2023-02-06T04:45:10.445Z,3.53
2023-02-06T04:47:38.481Z,3.63
2023-02-06T04:50:07.644Z,3.00
2023-02-06T04:52:35.753Z,3.60
2023-02-06T04:55:03.859Z,4.07
2023-02-06T04:57:33.273Z,4.33
2023-02-06T05:00:01.289Z,3.83
2023-02-06T05:02:29.390Z,4.03
2023-02-06T05:04:57.418Z,3.43
2023-02-06T05:07:25.660Z,3.90
2023-02-06T05:09:53.679Z,4.03
2023-02-06T05:12:21.764Z,4.00
2023-02-06T05:14:51.191Z,4.00
2023-02-06T05:17:19.216Z,4.40
2023-02-06T05:19:47.393Z,4.30
2023-02-06T05:22:15.453Z,4.13
2023-02-06T05:24:43.485Z,3.73
2023-02-06T05:27:11.563Z,3.23
2023-02-06T05:29:39.598Z,4.17
2023-02-06T05:32:09.038Z,4.90
2023-02-06T05:34:37.265Z,3.87
2023-02-06T05:37:05.287Z,6.43
2023-02-06T05:39:33.328Z,6.00
2023-02-06T05:42:01.355Z,6.20
2023-02-06T05:44:29.458Z,5.00
2023-02-06T05:46:57.516Z,5.67
2023-02-06T05:49:26.947Z,5.47
2023-02-06T05:51:55.128Z,4.73
2023-02-06T05:54:23.744Z,5.10
2023-02-06T05:56:51.832Z,5.17
2023-02-06T05:59:19.995Z,4.53
2023-02-06T06:01:48.057Z,3.93
2023-02-06T06:04:16.149Z,4.80
2023-02-06T06:06:45.583Z,5.03
2023-02-06T06:09:14.063Z,4.63
2023-02-06T06:11:42.190Z,3.93
2023-02-06T06:14:10.213Z,4.20
2023-02-06T06:16:38.444Z,4.57
2023-02-06T06:19:06.483Z,4.03
2023-02-06T06:21:35.001Z,4.43
2023-02-06T06:24:04.683Z,4.23
2023-02-06T06:26:32.761Z,3.63
2023-02-06T06:29:00.803Z,4.43
2023-02-06T06:31:28.897Z,4.40
2023-02-06T06:33:56.931Z,3.73
2023-02-06T06:36:24.976Z,4.10
2023-02-06T06:38:53.049Z,4.10
2023-02-06T06:41:22.447Z,3.90
2023-02-06T06:43:51.573Z,4.00
2023-02-06T06:46:20.024Z,4.23
2023-02-06T06:48:48.021Z,4.00
2023-02-06T06:51:16.073Z,4.90
2023-02-06T06:53:44.113Z,4.47
2023-02-06T06:56:14.525Z,3.83
2023-02-06T06:58:44.232Z,4.37
2023-02-06T07:01:12.299Z,4.70
2023-02-06T07:03:44.124Z,4.43
2023-02-06T07:06:12.699Z,4.60
2023-02-06T07:08:41.988Z,4.47
2023-02-06T07:11:10.487Z,4.50
2023-02-06T07:13:39.143Z,4.03
2023-02-06T07:16:09.694Z,4.33
2023-02-06T07:18:38.525Z,4.43
2023-02-06T07:21:08.749Z,4.70
2023-02-06T07:23:38.341Z,3.63
2023-02-06T07:26:06.970Z,4.30
2023-02-06T07:28:35.207Z,5.23
2023-02-06T07:31:03.883Z,4.83
2023-02-06T07:33:33.936Z,4.30
2023-02-06T07:36:03.844Z,4.67
2023-02-06T07:38:32.471Z,4.70
2023-02-06T07:41:02.598Z,4.53
2023-02-06T07:43:31.220Z,4.80
2023-02-06T07:46:00.998Z,5.53
2023-02-06T07:48:29.495Z,6.93
2023-02-06T07:50:59.130Z,6.03
2023-02-06T07:53:27.264Z,4.87
2023-02-06T07:55:55.537Z,5.23
2023-02-06T07:58:23.609Z,4.60
2023-02-06T08:00:51.623Z,4.77
2023-02-06T08:03:20.901Z,4.17
2023-02-06T08:05:49.075Z,3.73
2023-02-06T08:08:18.497Z,4.40
2023-02-06T08:10:46.547Z,4.27
2023-02-06T08:13:14.759Z,3.73
2023-02-06T08:15:43.232Z,4.00
2023-02-06T08:18:11.231Z,4.00
2023-02-06T08:20:39.765Z,4.00
2023-02-06T08:23:08.151Z,4.30
2023-02-06T08:25:37.935Z,5.47
2023-02-06T08:28:06.478Z,5.00
2023-02-06T08:30:34.819Z,5.70
2023-02-06T08:33:03.755Z,4.97
2023-02-06T08:35:32.994Z,4.43
2023-02-06T08:38:02.096Z,5.53
2023-02-06T08:40:30.121Z,6.27
2023-02-06T08:42:59.533Z,5.77
2023-02-06T08:45:27.594Z,6.10
2023-02-06T08:47:55.658Z,5.33
2023-02-06T08:50:23.709Z,4.70
2023-02-06T08:52:51.749Z,5.50
2023-02-06T08:55:20.054Z,4.73
2023-02-06T08:57:53.302Z,4.93
2023-02-06T09:00:23.467Z,6.07
2023-02-06T09:02:53.326Z,5.80
2023-02-06T09:05:21.869Z,6.53
2023-02-06T09:07:50.626Z,5.47
2023-02-06T09:10:27.169Z,5.87
2023-02-06T09:12:56.277Z,5.60
2023-02-06T09:15:25.710Z,5.77
2023-02-06T09:17:53.732Z,4.90
2023-02-06T09:20:22.557Z,5.23
2023-02-06T09:22:50.686Z,5.93
2023-02-06T09:25:18.819Z,6.07
2023-02-06T09:27:47.245Z,5.97
2023-02-06T09:30:15.953Z,5.40
2023-02-06T09:32:45.731Z,5.05
2023-02-06T09:35:13.836Z,5.97
2023-02-06T09:37:41.911Z,6.68
2023-02-06T09:40:13.422Z,5.53
2023-02-06T09:42:42.882Z,5.30
2023-02-06T09:45:16.196Z,5.40
2023-02-06T09:47:49.298Z,5.78
2023-02-06T09:50:24.217Z,5.38
2023-02-06T09:53:04.137Z,6.38
2023-02-06T09:55:39.940Z,5.65
2023-02-06T09:58:19.202Z,5.70
2023-02-06T10:00:52.696Z,5.22
2023-02-06T10:03:40.187Z,5.45
2023-02-06T10:06:17.867Z,4.97
2023-02-06T10:08:51.903Z,4.85
2023-02-06T10:11:26.676Z,5.03
2023-02-06T10:14:00.677Z,4.72
2023-02-06T10:16:37.860Z,5.20
2023-02-06T10:19:14.666Z,5.28
2023-02-06T10:21:47.471Z,4.90
2023-02-06T10:24:22.441Z,5.78
2023-02-06T10:26:53.609Z,4.93
2023-02-06T10:29:27.692Z,5.68
2023-02-06T10:32:09.918Z,5.38
2023-02-06T10:34:52.708Z,4.88
2023-02-06T10:37:47.843Z,4.90
2023-02-06T10:40:30.569Z,5.38
2023-02-06T10:43:04.351Z,5.32
2023-02-06T10:45:41.890Z,5.78
2023-02-06T10:48:20.322Z,5.28
2023-02-06T10:50:53.109Z,5.63
2023-02-06T10:53:25.220Z,4.60
2023-02-06T10:55:56.564Z,3.58
2023-02-06T10:58:28.421Z,4.03
2023-02-06T11:00:58.278Z,4.13
2023-02-06T11:03:30.507Z,4.45
2023-02-06T11:06:00.630Z,4.38
2023-02-06T11:08:31.516Z,4.72
2023-02-06T11:10:59.828Z,4.93
2023-02-06T11:13:30.672Z,4.55
2023-02-06T11:16:03.596Z,4.70
2023-02-06T11:18:34.558Z,4.25
2023-02-06T11:21:04.941Z,4.47
2023-02-06T11:23:35.052Z,4.43
2023-02-06T11:26:10.626Z,3.75
2023-02-06T11:28:42.268Z,4.70
2023-02-06T11:31:11.116Z,3.65
2023-02-06T11:33:49.081Z,4.95
2023-02-06T11:36:30.541Z,3.30
2023-02-06T11:39:01.433Z,3.47
2023-02-06T11:41:30.213Z,4.20
2023-02-06T11:44:02.702Z,3.45
2023-02-06T11:46:32.538Z,3.83
2023-02-06T11:49:07.585Z,3.35
2023-02-06T11:51:55.728Z,4.45
2023-02-06T11:54:28.276Z,3.13
2023-02-06T11:56:58.958Z,2.92
2023-02-06T11:59:27.492Z,3.33
2023-02-06T12:01:57.700Z,3.20
2023-02-06T12:04:32.089Z,2.92
2023-02-06T12:07:07.694Z,3.20
2023-02-06T12:09:35.792Z,2.92
2023-02-06T12:12:11.319Z,3.20
2023-02-06T12:14:43.510Z,3.17
2023-02-06T12:17:22.649Z,3.30
2023-02-06T12:19:56.666Z,3.08
2023-02-06T12:22:26.821Z,3.58
2023-02-06T12:24:57.528Z,2.72
2023-02-06T12:27:30.423Z,2.60
2023-02-06T12:30:02.904Z,2.90
2023-02-06T12:32:34.935Z,2.65
2023-02-06T12:35:15.485Z,3.13
2023-02-06T12:37:52.600Z,2.22
2023-02-06T12:40:31.951Z,3.40
2023-02-06T12:43:03.228Z,2.83
2023-02-06T12:45:41.228Z,2.83
2023-02-06T12:48:17.126Z,2.80
2023-02-06T12:50:49.795Z,2.88
2023-02-06T12:53:26.346Z,2.67
2023-02-06T12:56:00.810Z,3.05
2023-02-06T12:58:33.348Z,2.72
2023-02-06T13:01:30.937Z,2.58
2023-02-06T13:04:04.404Z,2.78
2023-02-06T13:06:40.788Z,2.75
2023-02-06T13:09:19.212Z,2.50
2023-02-06T13:11:47.347Z,3.30
2023-02-06T13:14:20.245Z,3.13
2023-02-06T13:16:54.914Z,2.80
2023-02-06T13:19:32.901Z,2.85
2023-02-06T13:22:23.763Z,2.63
2023-02-06T13:24:53.191Z,2.47
2023-02-06T13:27:25.096Z,2.90
2023-02-06T13:29:53.942Z,2.35
2023-02-06T13:32:50.299Z,2.60
2023-02-06T13:35:22.988Z,2.78
2023-02-06T13:37:53.265Z,2.92
2023-02-06T13:40:32.471Z,3.00
2023-02-06T13:43:04.225Z,2.67
2023-02-06T13:45:37.009Z,2.72
2023-02-06T13:48:46.990Z,2.80
2023-02-06T13:51:40.474Z,3.33
2023-02-06T13:54:52.586Z,2.60
2023-02-06T13:57:44.672Z,2.63
2023-02-06T14:00:17.244Z,2.90
2023-02-06T14:02:48.691Z,2.72
2023-02-06T14:05:20.067Z,2.70
2023-02-06T14:08:12.180Z,2.42
2023-02-06T14:10:59.312Z,2.20
2023-02-06T14:13:40.763Z,2.40
2023-02-06T14:16:32.867Z,2.97
2023-02-06T14:19:05.484Z,2.20
2023-02-06T14:21:43.996Z,2.67
2023-02-06T14:24:45.929Z,2.65
2023-02-06T14:27:24.001Z,2.83
2023-02-06T14:30:02.622Z,2.92
2023-02-06T14:32:42.689Z,2.90
2023-02-06T14:35:32.154Z,2.80
2023-02-06T14:38:29.697Z,3.22
2023-02-06T14:41:01.902Z,3.13
2023-02-06T14:43:33.579Z,3.08
2023-02-06T14:46:08.471Z,2.65
2023-02-06T14:48:40.132Z,2.90
2023-02-06T14:51:19.040Z,2.83
2023-02-06T14:53:53.511Z,2.83
2023-02-06T14:56:27.815Z,3.10
2023-02-06T14:58:57.066Z,2.80
2023-02-06T15:01:31.256Z,3.00
2023-02-06T15:04:11.534Z,2.70
2023-02-06T15:06:41.697Z,3.05
2023-02-06T15:09:23.306Z,3.13
2023-02-06T15:11:52.644Z,4.05
2023-02-06T15:14:23.840Z,2.92
2023-02-06T15:16:56.917Z,3.42
2023-02-06T15:19:26.794Z,5.03
2023-02-06T15:22:00.442Z,3.72
2023-02-06T15:24:52.654Z,3.78
2023-02-06T15:27:29.259Z,3.40
2023-02-06T15:29:58.203Z,5.95
2023-02-06T15:32:33.704Z,3.92
2023-02-06T15:35:03.714Z,7.90
2023-02-06T15:37:34.578Z,6.18
2023-02-06T15:40:18.913Z,8.95
2023-02-06T15:42:48.157Z,6.05
2023-02-06T15:45:21.988Z,5.90
2023-02-06T15:47:52.598Z,12.75
2023-02-06T15:50:24.143Z,17.23
2023-02-06T15:52:52.351Z,17.08
2023-02-06T15:55:26.641Z,17.65
2023-02-06T15:57:56.605Z,10.10
2023-02-06T16:00:27.558Z,6.70
2023-02-06T16:03:02.726Z,4.80
2023-02-06T16:05:33.353Z,6.97
2023-02-06T16:08:03.498Z,8.25
2023-02-06T16:10:34.878Z,6.60
2023-02-06T16:13:08.955Z,4.50
2023-02-06T16:15:39.360Z,4.47
2023-02-06T16:18:27.483Z,6.80
2023-02-06T16:21:21.493Z,8.18
2023-02-06T16:23:51.725Z,6.20
2023-02-06T16:26:22.822Z,6.15
2023-02-06T16:28:58.066Z,5.10
2023-02-06T16:31:27.574Z,5.15
2023-02-06T16:34:03.066Z,4.25
2023-02-06T16:36:33.584Z,3.53
2023-02-06T16:39:04.406Z,3.58
2023-02-06T16:41:34.768Z,3.70
2023-02-06T16:44:04.230Z,3.60
2023-02-06T16:46:32.621Z,3.60
2023-02-06T16:49:02.072Z,3.55
2023-02-06T16:51:33.094Z,3.47
2023-02-06T16:54:01.126Z,3.80
2023-02-06T16:56:29.186Z,3.80
2023-02-06T16:58:57.197Z,3.40
2023-02-06T17:01:29.502Z,3.10
2023-02-06T17:03:57.607Z,3.60
2023-02-06T17:06:29.227Z,3.20
2023-02-06T17:09:02.005Z,3.90
2023-02-06T17:11:30.302Z,3.33
2023-02-06T17:13:58.326Z,3.35
2023-02-06T17:16:27.478Z,4.15
2023-02-06T17:18:56.267Z,3.63
2023-02-06T17:21:28.298Z,3.58
2023-02-06T17:23:56.363Z,3.70
2023-02-06T17:26:24.726Z,4.10
2023-02-06T17:28:53.145Z,3.83
2023-02-06T17:31:21.874Z,3.67
2023-02-06T17:33:50.244Z,3.67
2023-02-06T17:36:22.378Z,4.35
2023-02-06T17:38:51.844Z,3.97
2023-02-06T17:41:19.996Z,3.53
2023-02-06T17:43:48.034Z,3.85
2023-02-06T17:46:16.147Z,4.47
2023-02-06T17:48:44.603Z,4.30
2023-02-06T17:51:13.098Z,3.63
2023-02-06T17:53:41.159Z,3.70
2023-02-06T17:56:13.279Z,3.58
2023-02-06T17:58:42.347Z,3.50
2023-02-06T18:01:12.262Z,3.47
2023-02-06T18:03:40.385Z,3.13
2023-02-06T18:06:09.131Z,4.10
2023-02-06T18:08:37.216Z,3.80
2023-02-06T18:11:11.525Z,4.10
2023-02-06T18:13:40.116Z,4.18
2023-02-06T18:16:09.121Z,4.13
2023-02-06T18:18:37.335Z,6.22
2023-02-06T18:21:05.618Z,4.70
2023-02-06T18:23:33.709Z,5.93
2023-02-06T18:26:03.574Z,5.73
2023-02-06T18:28:33.542Z,6.07
2023-02-06T18:31:02.303Z,6.20
2023-02-06T18:33:30.617Z,7.00
2023-02-06T18:35:58.763Z,8.53
2023-02-06T18:38:27.084Z,7.47
2023-02-06T18:40:55.121Z,8.37
2023-02-06T18:43:22.147Z,8.77
2023-02-06T18:45:51.563Z,8.67
2023-02-06T18:48:19.667Z,8.27
2023-02-06T18:50:47.716Z,7.77
2023-02-06T18:53:16.462Z,8.13
2023-02-06T18:55:44.535Z,9.70
2023-02-06T18:58:12.568Z,10.10
2023-02-06T19:00:42.342Z,14.07
2023-02-06T19:03:11.807Z,17.63
2023-02-06T19:05:39.964Z,17.47
2023-02-06T19:08:07.989Z,19.47
2023-02-06T19:10:36.327Z,17.47
2023-02-06T19:13:05.731Z,17.03
2023-02-06T19:15:35.866Z,16.60
2023-02-06T19:18:05.616Z,15.13
2023-02-06T19:20:35.439Z,15.40
2023-02-06T19:23:03.619Z,15.43
2023-02-06T19:25:31.688Z,16.80
2023-02-06T19:27:59.753Z,18.40
2023-02-06T19:30:27.894Z,19.67
2023-02-06T19:32:55.929Z,20.57
2023-02-06T19:35:24.301Z,20.40
2023-02-06T19:37:53.806Z,20.63
2023-02-06T19:40:22.026Z,20.27
2023-02-06T19:42:50.092Z,22.83
2023-02-06T19:45:18.226Z,25.33
2023-02-06T19:47:46.262Z,25.33
2023-02-06T19:50:14.559Z,29.70
2023-02-06T19:52:42.627Z,32.93
2023-02-06T19:55:12.405Z,29.60
2023-02-06T19:57:40.704Z,26.13
2023-02-06T20:00:10.205Z,26.87
2023-02-06T20:02:39.090Z,27.10
2023-02-06T20:05:08.081Z,30.03
2023-02-06T20:07:36.242Z,29.53
2023-02-06T20:10:04.409Z,28.37
2023-02-06T20:12:34.173Z,32.53
2023-02-06T20:15:02.353Z,32.80
2023-02-06T20:17:30.385Z,32.27
2023-02-06T20:20:00.662Z,33.83
2023-02-06T20:22:28.988Z,34.27
2023-02-06T20:24:57.153Z,35.83
2023-02-06T20:27:25.254Z,36.17
2023-02-06T20:29:54.708Z,36.57
2023-02-06T20:32:22.780Z,35.40
2023-02-06T20:34:50.830Z,35.53
2023-02-06T20:37:18.912Z,34.43
2023-02-06T20:39:47.034Z,32.90
2023-02-06T20:42:15.446Z,33.03
2023-02-06T20:44:43.477Z,30.60
2023-02-06T20:47:12.951Z,31.33
2023-02-06T20:49:41.960Z,30.43
2023-02-06T20:52:10.116Z,26.50
2023-02-06T20:54:38.259Z,27.07
2023-02-06T20:57:06.275Z,26.37
2023-02-06T20:59:34.356Z,24.87
2023-02-06T21:02:02.445Z,25.20
2023-02-06T21:04:34.583Z,24.20
2023-02-06T21:07:02.700Z,23.40
2023-02-06T21:09:30.832Z,25.73
2023-02-06T21:11:58.866Z,27.10
2023-02-06T21:14:29.928Z,30.57
2023-02-06T21:16:58.289Z,34.37
2023-02-06T21:19:28.797Z,33.40
2023-02-06T21:21:58.333Z,32.07
2023-02-06T21:24:26.345Z,30.40
2023-02-06T21:26:54.768Z,32.23
2023-02-06T21:29:23.756Z,28.90
2023-02-06T21:32:00.594Z,26.93
2023-02-06T21:34:35.441Z,23.30
2023-02-06T21:37:05.908Z,17.80
2023-02-06T21:39:34.345Z,18.17
2023-02-06T21:42:02.392Z,17.83
2023-02-06T21:44:30.473Z,18.47
2023-02-06T21:46:58.548Z,15.97
2023-02-06T21:49:26.719Z,16.47
2023-02-06T21:51:56.174Z,15.67
2023-02-06T21:54:25.856Z,18.93
2023-02-06T21:56:54.619Z,17.07
2023-02-06T21:59:22.791Z,17.07
2023-02-06T22:01:50.928Z,17.03
2023-02-06T22:04:18.966Z,17.97
2023-02-06T22:06:48.968Z,19.07
2023-02-06T22:09:19.049Z,18.47
2023-02-06T22:11:48.895Z,15.23
2023-02-06T22:14:18.712Z,16.73
2023-02-06T22:16:47.752Z,17.03
2023-02-06T22:19:17.093Z,15.93
2023-02-06T22:21:45.893Z,16.67
2023-02-06T22:24:14.498Z,13.90
2023-02-06T22:26:43.462Z,14.27
2023-02-06T22:29:15.935Z,14.13
2023-02-06T22:31:45.042Z,13.30
2023-02-06T22:34:16.293Z,14.90
2023-02-06T22:36:45.723Z,13.73
2023-02-06T22:39:15.732Z,13.63
2023-02-06T22:41:45.651Z,13.83
2023-02-06T22:44:17.253Z,13.47
2023-02-06T22:46:47.161Z,14.50
2023-02-06T22:49:15.813Z,14.53
2023-02-06T22:51:44.469Z,14.33
2023-02-06T22:54:13.298Z,14.30
2023-02-06T22:56:42.494Z,13.70
2023-02-06T22:59:12.913Z,14.53
2023-02-06T23:01:44.725Z,14.47
2023-02-06T23:04:16.449Z,15.40
2023-02-06T23:06:45.467Z,13.97
2023-02-06T23:09:17.396Z,13.43
2023-02-06T23:11:46.223Z,15.50
2023-02-06T23:14:16.514Z,14.73
2023-02-06T23:16:46.770Z,15.70
2023-02-06T23:19:16.571Z,15.00
2023-02-06T23:21:47.098Z,14.53
2023-02-06T23:24:16.911Z,14.37
2023-02-06T23:26:47.861Z,14.50
2023-02-06T23:29:18.061Z,13.80
2023-02-06T23:31:49.101Z,14.00
2023-02-06T23:34:19.201Z,13.87
2023-02-06T23:36:48.922Z,14.27
2023-02-06T23:39:17.172Z,13.90
2023-02-06T23:41:45.474Z,14.97
2023-02-06T23:44:14.087Z,13.90
2023-02-06T23:46:42.959Z,14.83
2023-02-06T23:49:13.005Z,14.40
2023-02-06T23:51:41.366Z,15.93
2023-02-06T23:54:10.493Z,15.43
2023-02-06T23:56:39.268Z,15.13
2023-02-06T23:59:07.721Z,15.10
